sensor_id;sensor_type;location;lat;lon;timestamp;P1;durP1;ratioP1;P2;durP2;ratioP2
3757;SDS011;1894;51.038;13.692;2023-04-24T00:01:35;11.50;;;7.77;;
3757;SDS011;1894;51.038;13.692;2023-04-24T00:04:03;7.33;;;6.53;;
3757;SDS011;1894;51.038;13.692;2023-04-24T00:06:30;7.80;;;6.80;;
3757;SDS011;1894;51.038;13.692;2023-04-24T00:09:00;7.47;;;6.77;;
3757;SDS011;1894;51.038;13.692;2023-04-24T00:11:28;9.20;;;6.50;;
3757;SDS011;1894;51.038;13.692;2023-04-24T00:13:56;8.57;;;5.63;;
3757;SDS011;1894;51.038;13.692;2023-04-24T00:16:23;6.20;;;5.37;;
3757;SDS011;1894;51.038;13.692;2023-04-24T00:18:51;8.43;;;5.80;;
3757;SDS011;1894;51.038;13.692;2023-04-24T00:21:19;7.63;;;5.10;;
3757;SDS011;1894;51.038;13.692;2023-04-24T00:23:47;7.37;;;5.30;;
3757;SDS011;1894;51.038;13.692;2023-04-24T00:26:14;10.07;;;5.57;;
3757;SDS011;1894;51.038;13.692;2023-04-24T00:28:41;8.27;;;5.80;;
3757;SDS011;1894;51.038;13.692;2023-04-24T00:31:09;5.27;;;4.77;;
3757;SDS011;1894;51.038;13.692;2023-04-24T00:33:36;5.53;;;4.93;;
3757;SDS011;1894;51.038;13.692;2023-04-24T00:36:03;6.97;;;4.80;;
3757;SDS011;1894;51.038;13.692;2023-04-24T00:38:31;7.63;;;5.23;;
3757;SDS011;1894;51.038;13.692;2023-04-24T00:40:58;6.20;;;5.17;;
3757;SDS011;1894;51.038;13.692;2023-04-24T00:43:26;6.30;;;5.70;;
3757;SDS011;1894;51.038;13.692;2023-04-24T00:45:53;7.20;;;5.50;;
3757;SDS011;1894;51.038;13.692;2023-04-24T00:48:21;8.33;;;7.00;;
3757;SDS011;1894;51.038;13.692;2023-04-24T00:50:49;7.60;;;6.80;;
3757;SDS011;1894;51.038;13.692;2023-04-24T00:53:16;7.53;;;6.70;;
3757;SDS011;1894;51.038;13.692;2023-04-24T00:55:44;12.50;;;6.70;;
3757;SDS011;1894;51.038;13.692;2023-04-24T00:58:12;8.73;;;6.87;;
3757;SDS011;1894;51.038;13.692;2023-04-24T01:00:39;8.00;;;6.30;;
3757;SDS011;1894;51.038;13.692;2023-04-24T01:03:07;7.57;;;6.80;;
3757;SDS011;1894;51.038;13.692;2023-04-24T01:05:35;10.00;;;7.20;;
3757;SDS011;1894;51.038;13.692;2023-04-24T01:08:02;6.77;;;6.07;;
3757;SDS011;1894;51.038;13.692;2023-04-24T01:10:30;7.97;;;7.13;;
3757;SDS011;1894;51.038;13.692;2023-04-24T01:12:59;7.60;;;6.83;;
3757;SDS011;1894;51.038;13.692;2023-04-24T01:15:26;8.00;;;7.20;;
3757;SDS011;1894;51.038;13.692;2023-04-24T01:17:53;9.13;;;7.50;;
3757;SDS011;1894;51.038;13.692;2023-04-24T01:20:21;7.67;;;6.30;;
3757;SDS011;1894;51.038;13.692;2023-04-24T01:22:49;7.50;;;6.80;;
3757;SDS011;1894;51.038;13.692;2023-04-24T01:25:16;8.53;;;7.53;;
3757;SDS011;1894;51.038;13.692;2023-04-24T01:27:43;7.70;;;6.67;;
3757;SDS011;1894;51.038;13.692;2023-04-24T01:30:11;6.03;;;5.43;;
3757;SDS011;1894;51.038;13.692;2023-04-24T01:32:39;7.53;;;6.73;;
3757;SDS011;1894;51.038;13.692;2023-04-24T01:35:10;12.97;;;6.70;;
3757;SDS011;1894;51.038;13.692;2023-04-24T01:37:38;9.00;;;7.27;;
3757;SDS011;1894;51.038;13.692;2023-04-24T01:40:06;8.93;;;7.33;;
3757;SDS011;1894;51.038;13.692;2023-04-24T01:42:34;8.73;;;7.83;;
3757;SDS011;1894;51.038;13.692;2023-04-24T01:45:02;9.57;;;6.77;;
3757;SDS011;1894;51.038;13.692;2023-04-24T01:47:32;9.90;;;6.50;;
3757;SDS011;1894;51.038;13.692;2023-04-24T01:49:59;8.87;;;6.63;;
3757;SDS011;1894;51.038;13.692;2023-04-24T01:52:27;8.10;;;6.23;;
3757;SDS011;1894;51.038;13.692;2023-04-24T01:54:59;5.57;;;4.93;;
3757;SDS011;1894;51.038;13.692;2023-04-24T01:57:27;7.23;;;6.43;;
3757;SDS011;1894;51.038;13.692;2023-04-24T01:59:56;6.13;;;5.30;;
3757;SDS011;1894;51.038;13.692;2023-04-24T02:02:23;6.50;;;5.90;;
3757;SDS011;1894;51.038;13.692;2023-04-24T02:04:56;7.17;;;5.47;;
3757;SDS011;1894;51.038;13.692;2023-04-24T02:07:23;6.87;;;6.17;;
3757;SDS011;1894;51.038;13.692;2023-04-24T02:09:50;7.90;;;6.50;;
3757;SDS011;1894;51.038;13.692;2023-04-24T02:12:17;6.37;;;5.77;;
3757;SDS011;1894;51.038;13.692;2023-04-24T02:14:45;6.10;;;5.43;;
3757;SDS011;1894;51.038;13.692;2023-04-24T02:17:12;6.00;;;5.40;;
3757;SDS011;1894;51.038;13.692;2023-04-24T02:19:41;7.77;;;5.87;;
3757;SDS011;1894;51.038;13.692;2023-04-24T02:22:09;8.07;;;6.17;;
3757;SDS011;1894;51.038;13.692;2023-04-24T02:24:37;6.83;;;6.13;;
3757;SDS011;1894;51.038;13.692;2023-04-24T02:27:05;6.27;;;5.10;;
3757;SDS011;1894;51.038;13.692;2023-04-24T02:29:33;6.17;;;5.57;;
3757;SDS011;1894;51.038;13.692;2023-04-24T02:32:00;6.40;;;5.50;;
3757;SDS011;1894;51.038;13.692;2023-04-24T02:34:27;7.07;;;6.27;;
3757;SDS011;1894;51.038;13.692;2023-04-24T02:36:54;7.20;;;6.50;;
3757;SDS011;1894;51.038;13.692;2023-04-24T02:39:21;7.27;;;6.57;;
3757;SDS011;1894;51.038;13.692;2023-04-24T02:41:49;9.80;;;7.50;;
3757;SDS011;1894;51.038;13.692;2023-04-24T02:44:16;8.20;;;6.03;;
3757;SDS011;1894;51.038;13.692;2023-04-24T02:46:43;7.50;;;6.27;;
3757;SDS011;1894;51.038;13.692;2023-04-24T02:49:11;7.30;;;6.20;;
3757;SDS011;1894;51.038;13.692;2023-04-24T02:51:38;7.50;;;5.80;;
3757;SDS011;1894;51.038;13.692;2023-04-24T02:54:08;7.30;;;6.30;;
3757;SDS011;1894;51.038;13.692;2023-04-24T02:56:36;8.40;;;6.30;;
3757;SDS011;1894;51.038;13.692;2023-04-24T02:59:05;10.67;;;6.60;;
3757;SDS011;1894;51.038;13.692;2023-04-24T03:01:33;8.20;;;5.67;;
3757;SDS011;1894;51.038;13.692;2023-04-24T03:04:00;8.50;;;5.77;;
3757;SDS011;1894;51.038;13.692;2023-04-24T03:06:28;8.57;;;5.80;;
3757;SDS011;1894;51.038;13.692;2023-04-24T03:08:57;5.50;;;5.00;;
3757;SDS011;1894;51.038;13.692;2023-04-24T03:11:24;8.93;;;6.07;;
3757;SDS011;1894;51.038;13.692;2023-04-24T03:13:52;7.17;;;5.40;;
3757;SDS011;1894;51.038;13.692;2023-04-24T03:16:19;6.23;;;5.63;;
3757;SDS011;1894;51.038;13.692;2023-04-24T03:18:46;7.07;;;6.10;;
3757;SDS011;1894;51.038;13.692;2023-04-24T03:21:14;6.37;;;5.27;;
3757;SDS011;1894;51.038;13.692;2023-04-24T03:23:42;7.10;;;5.20;;
3757;SDS011;1894;51.038;13.692;2023-04-24T03:26:09;10.77;;;6.57;;
3757;SDS011;1894;51.038;13.692;2023-04-24T03:28:43;6.77;;;5.03;;
3757;SDS011;1894;51.038;13.692;2023-04-24T03:31:10;7.43;;;6.17;;
3757;SDS011;1894;51.038;13.692;2023-04-24T03:33:37;7.10;;;6.40;;
3757;SDS011;1894;51.038;13.692;2023-04-24T03:36:06;6.67;;;6.07;;
3757;SDS011;1894;51.038;13.692;2023-04-24T03:38:37;6.30;;;5.33;;
3757;SDS011;1894;51.038;13.692;2023-04-24T03:41:37;3.10;;;2.80;;
3757;SDS011;1894;51.038;13.692;2023-04-24T03:44:11;2.90;;;2.00;;
3757;SDS011;1894;51.038;13.692;2023-04-24T03:46:39;1.10;;;1.00;;
3757;SDS011;1894;51.038;13.692;2023-04-24T03:49:06;1.00;;;0.90;;
3757;SDS011;1894;51.038;13.692;2023-04-24T03:51:37;1.43;;;0.97;;
3757;SDS011;1894;51.038;13.692;2023-04-24T03:54:17;0.90;;;0.80;;
3757;SDS011;1894;51.038;13.692;2023-04-24T03:56:45;2.37;;;1.10;;
3757;SDS011;1894;51.038;13.692;2023-04-24T03:59:12;4.23;;;0.87;;
3757;SDS011;1894;51.038;13.692;2023-04-24T04:01:43;0.80;;;0.70;;
3757;SDS011;1894;51.038;13.692;2023-04-24T04:04:13;3.47;;;1.23;;
3757;SDS011;1894;51.038;13.692;2023-04-24T04:06:42;1.10;;;0.90;;
3757;SDS011;1894;51.038;13.692;2023-04-24T04:09:11;4.10;;;0.90;;
3757;SDS011;1894;51.038;13.692;2023-04-24T04:11:38;2.43;;;0.80;;
3757;SDS011;1894;51.038;13.692;2023-04-24T04:14:06;2.40;;;0.70;;
3757;SDS011;1894;51.038;13.692;2023-04-24T04:16:37;0.80;;;0.60;;
3757;SDS011;1894;51.038;13.692;2023-04-24T04:19:05;3.33;;;1.47;;
3757;SDS011;1894;51.038;13.692;2023-04-24T04:21:33;3.77;;;0.80;;
3757;SDS011;1894;51.038;13.692;2023-04-24T04:24:22;1.63;;;0.80;;
3757;SDS011;1894;51.038;13.692;2023-04-24T04:26:51;3.80;;;0.63;;
3757;SDS011;1894;51.038;13.692;2023-04-24T04:29:26;1.60;;;0.90;;
3757;SDS011;1894;51.038;13.692;2023-04-24T04:31:53;1.00;;;0.70;;
3757;SDS011;1894;51.038;13.692;2023-04-24T04:34:22;7.23;;;1.27;;
3757;SDS011;1894;51.038;13.692;2023-04-24T04:36:50;3.53;;;0.90;;
3757;SDS011;1894;51.038;13.692;2023-04-24T04:39:43;1.07;;;0.97;;
3757;SDS011;1894;51.038;13.692;2023-04-24T04:42:20;1.60;;;0.77;;
3757;SDS011;1894;51.038;13.692;2023-04-24T04:44:48;3.53;;;0.80;;
3757;SDS011;1894;51.038;13.692;2023-04-24T04:47:20;1.17;;;0.90;;
3757;SDS011;1894;51.038;13.692;2023-04-24T04:49:52;3.17;;;1.00;;
3757;SDS011;1894;51.038;13.692;2023-04-24T04:52:23;1.50;;;0.60;;
3757;SDS011;1894;51.038;13.692;2023-04-24T04:55:00;1.70;;;0.80;;
3757;SDS011;1894;51.038;13.692;2023-04-24T04:57:47;1.93;;;0.73;;
3757;SDS011;1894;51.038;13.692;2023-04-24T05:00:14;1.93;;;1.30;;
3757;SDS011;1894;51.038;13.692;2023-04-24T05:02:49;1.47;;;1.00;;
3757;SDS011;1894;51.038;13.692;2023-04-24T05:05:16;2.63;;;0.70;;
3757;SDS011;1894;51.038;13.692;2023-04-24T05:07:44;2.17;;;1.10;;
3757;SDS011;1894;51.038;13.692;2023-04-24T05:10:11;3.23;;;1.33;;
3757;SDS011;1894;51.038;13.692;2023-04-24T05:12:39;6.20;;;1.37;;
3757;SDS011;1894;51.038;13.692;2023-04-24T05:15:06;1.33;;;1.00;;
3757;SDS011;1894;51.038;13.692;2023-04-24T05:17:34;2.70;;;1.37;;
3757;SDS011;1894;51.038;13.692;2023-04-24T05:20:02;3.13;;;1.03;;
3757;SDS011;1894;51.038;13.692;2023-04-24T05:22:32;1.90;;;0.90;;
3757;SDS011;1894;51.038;13.692;2023-04-24T05:24:59;1.30;;;0.77;;
3757;SDS011;1894;51.038;13.692;2023-04-24T05:27:40;1.87;;;0.90;;
3757;SDS011;1894;51.038;13.692;2023-04-24T05:30:13;1.00;;;0.80;;
3757;SDS011;1894;51.038;13.692;2023-04-24T05:32:41;1.73;;;1.20;;
3757;SDS011;1894;51.038;13.692;2023-04-24T05:35:08;3.00;;;0.90;;
3757;SDS011;1894;51.038;13.692;2023-04-24T05:37:35;3.10;;;2.23;;
3757;SDS011;1894;51.038;13.692;2023-04-24T05:40:03;4.07;;;0.80;;
3757;SDS011;1894;51.038;13.692;2023-04-24T05:42:31;3.90;;;1.47;;
3757;SDS011;1894;51.038;13.692;2023-04-24T05:44:58;1.80;;;1.30;;
3757;SDS011;1894;51.038;13.692;2023-04-24T05:47:26;3.13;;;1.20;;
3757;SDS011;1894;51.038;13.692;2023-04-24T05:49:53;4.93;;;1.00;;
3757;SDS011;1894;51.038;13.692;2023-04-24T05:52:21;7.70;;;1.10;;
3757;SDS011;1894;51.038;13.692;2023-04-24T05:54:48;1.20;;;1.00;;
3757;SDS011;1894;51.038;13.692;2023-04-24T05:57:21;2.30;;;1.10;;
3757;SDS011;1894;51.038;13.692;2023-04-24T05:59:55;3.63;;;1.50;;
3757;SDS011;1894;51.038;13.692;2023-04-24T06:02:24;1.57;;;1.20;;
3757;SDS011;1894;51.038;13.692;2023-04-24T06:04:51;5.10;;;1.53;;
3757;SDS011;1894;51.038;13.692;2023-04-24T06:07:19;2.20;;;1.10;;
3757;SDS011;1894;51.038;13.692;2023-04-24T06:09:46;6.93;;;2.10;;
3757;SDS011;1894;51.038;13.692;2023-04-24T06:12:14;4.50;;;1.17;;
3757;SDS011;1894;51.038;13.692;2023-04-24T06:15:02;1.70;;;0.83;;
3757;SDS011;1894;51.038;13.692;2023-04-24T06:18:05;2.97;;;1.03;;
3757;SDS011;1894;51.038;13.692;2023-04-24T06:20:33;2.80;;;1.00;;
3757;SDS011;1894;51.038;13.692;2023-04-24T06:23:01;1.00;;;0.80;;
3757;SDS011;1894;51.038;13.692;2023-04-24T06:25:28;1.17;;;0.77;;
3757;SDS011;1894;51.038;13.692;2023-04-24T06:27:55;2.53;;;0.63;;
3757;SDS011;1894;51.038;13.692;2023-04-24T06:30:23;4.60;;;0.80;;
3757;SDS011;1894;51.038;13.692;2023-04-24T06:32:50;3.33;;;0.80;;
3757;SDS011;1894;51.038;13.692;2023-04-24T06:35:17;3.40;;;0.70;;
3757;SDS011;1894;51.038;13.692;2023-04-24T06:37:45;1.73;;;0.80;;
3757;SDS011;1894;51.038;13.692;2023-04-24T06:40:12;3.70;;;0.70;;
3757;SDS011;1894;51.038;13.692;2023-04-24T06:42:40;1.30;;;0.63;;
3757;SDS011;1894;51.038;13.692;2023-04-24T06:45:07;1.30;;;0.60;;
3757;SDS011;1894;51.038;13.692;2023-04-24T06:47:35;1.13;;;0.80;;
3757;SDS011;1894;51.038;13.692;2023-04-24T06:50:02;1.57;;;0.80;;
3757;SDS011;1894;51.038;13.692;2023-04-24T06:52:30;1.03;;;0.93;;
3757;SDS011;1894;51.038;13.692;2023-04-24T06:55:00;2.13;;;0.87;;
3757;SDS011;1894;51.038;13.692;2023-04-24T06:57:29;1.30;;;0.90;;
3757;SDS011;1894;51.038;13.692;2023-04-24T06:59:56;2.77;;;0.90;;
3757;SDS011;1894;51.038;13.692;2023-04-24T07:02:24;2.40;;;0.80;;
3757;SDS011;1894;51.038;13.692;2023-04-24T07:04:52;1.00;;;0.70;;
3757;SDS011;1894;51.038;13.692;2023-04-24T07:07:20;1.43;;;0.60;;
3757;SDS011;1894;51.038;13.692;2023-04-24T07:09:50;2.27;;;0.60;;
3757;SDS011;1894;51.038;13.692;2023-04-24T07:12:17;1.57;;;0.70;;
3757;SDS011;1894;51.038;13.692;2023-04-24T07:14:47;1.00;;;0.57;;
3757;SDS011;1894;51.038;13.692;2023-04-24T07:17:14;2.90;;;0.70;;
3757;SDS011;1894;51.038;13.692;2023-04-24T07:19:41;3.17;;;0.63;;
3757;SDS011;1894;51.038;13.692;2023-04-24T07:22:09;0.70;;;0.53;;
3757;SDS011;1894;51.038;13.692;2023-04-24T07:24:43;1.73;;;0.70;;
3757;SDS011;1894;51.038;13.692;2023-04-24T07:27:11;1.97;;;0.90;;
3757;SDS011;1894;51.038;13.692;2023-04-24T07:29:38;1.10;;;0.70;;
3757;SDS011;1894;51.038;13.692;2023-04-24T07:32:07;2.50;;;0.80;;
3757;SDS011;1894;51.038;13.692;2023-04-24T07:34:34;0.60;;;0.50;;
3757;SDS011;1894;51.038;13.692;2023-04-24T07:37:04;2.00;;;0.60;;
3757;SDS011;1894;51.038;13.692;2023-04-24T07:39:31;2.20;;;0.60;;
3757;SDS011;1894;51.038;13.692;2023-04-24T07:41:58;2.27;;;0.77;;
3757;SDS011;1894;51.038;13.692;2023-04-24T07:44:26;3.13;;;0.70;;
3757;SDS011;1894;51.038;13.692;2023-04-24T07:46:53;0.80;;;0.60;;
3757;SDS011;1894;51.038;13.692;2023-04-24T07:49:20;1.53;;;0.67;;
3757;SDS011;1894;51.038;13.692;2023-04-24T07:51:48;1.33;;;0.50;;
3757;SDS011;1894;51.038;13.692;2023-04-24T07:54:16;3.70;;;0.70;;
3757;SDS011;1894;51.038;13.692;2023-04-24T07:56:43;0.80;;;0.70;;
3757;SDS011;1894;51.038;13.692;2023-04-24T07:59:11;1.47;;;0.60;;
3757;SDS011;1894;51.038;13.692;2023-04-24T08:01:38;1.93;;;0.70;;
3757;SDS011;1894;51.038;13.692;2023-04-24T08:04:05;3.87;;;1.07;;
3757;SDS011;1894;51.038;13.692;2023-04-24T08:06:33;3.17;;;0.67;;
3757;SDS011;1894;51.038;13.692;2023-04-24T08:09:00;1.37;;;0.60;;
3757;SDS011;1894;51.038;13.692;2023-04-24T08:11:28;2.20;;;0.63;;
3757;SDS011;1894;51.038;13.692;2023-04-24T08:13:55;2.40;;;1.00;;
3757;SDS011;1894;51.038;13.692;2023-04-24T08:16:22;1.40;;;0.60;;
3757;SDS011;1894;51.038;13.692;2023-04-24T08:18:52;1.30;;;0.70;;
3757;SDS011;1894;51.038;13.692;2023-04-24T08:21:20;3.20;;;0.60;;
3757;SDS011;1894;51.038;13.692;2023-04-24T08:23:47;1.87;;;0.70;;
3757;SDS011;1894;51.038;13.692;2023-04-24T08:26:14;1.70;;;0.70;;
3757;SDS011;1894;51.038;13.692;2023-04-24T08:28:42;1.67;;;0.80;;
3757;SDS011;1894;51.038;13.692;2023-04-24T08:31:09;1.30;;;0.53;;
3757;SDS011;1894;51.038;13.692;2023-04-24T08:33:36;1.53;;;0.50;;
3757;SDS011;1894;51.038;13.692;2023-04-24T08:36:03;1.37;;;0.60;;
3757;SDS011;1894;51.038;13.692;2023-04-24T08:38:32;1.10;;;0.60;;
3757;SDS011;1894;51.038;13.692;2023-04-24T08:41:00;1.87;;;0.70;;
3757;SDS011;1894;51.038;13.692;2023-04-24T08:43:28;1.67;;;0.60;;
3757;SDS011;1894;51.038;13.692;2023-04-24T08:45:56;2.57;;;0.97;;
3757;SDS011;1894;51.038;13.692;2023-04-24T08:48:24;2.00;;;0.77;;
3757;SDS011;1894;51.038;13.692;2023-04-24T08:50:58;1.63;;;0.80;;
3757;SDS011;1894;51.038;13.692;2023-04-24T08:53:26;2.10;;;0.80;;
3757;SDS011;1894;51.038;13.692;2023-04-24T08:55:54;2.80;;;0.90;;
3757;SDS011;1894;51.038;13.692;2023-04-24T08:58:25;3.70;;;0.70;;
3757;SDS011;1894;51.038;13.692;2023-04-24T09:00:54;1.20;;;0.60;;
3757;SDS011;1894;51.038;13.692;2023-04-24T09:03:22;1.03;;;0.60;;
3757;SDS011;1894;51.038;13.692;2023-04-24T09:05:50;2.10;;;0.50;;
3757;SDS011;1894;51.038;13.692;2023-04-24T09:08:20;1.30;;;0.60;;
3757;SDS011;1894;51.038;13.692;2023-04-24T09:10:52;1.00;;;0.60;;
3757;SDS011;1894;51.038;13.692;2023-04-24T09:13:19;8.67;;;0.70;;
3757;SDS011;1894;51.038;13.692;2023-04-24T09:15:47;1.97;;;0.70;;
3757;SDS011;1894;51.038;13.692;2023-04-24T09:18:14;0.70;;;0.60;;
3757;SDS011;1894;51.038;13.692;2023-04-24T09:20:57;1.07;;;0.50;;
3757;SDS011;1894;51.038;13.692;2023-04-24T09:23:29;1.60;;;0.70;;
3757;SDS011;1894;51.038;13.692;2023-04-24T09:25:58;2.53;;;0.80;;
3757;SDS011;1894;51.038;13.692;2023-04-24T09:28:29;1.20;;;0.70;;
3757;SDS011;1894;51.038;13.692;2023-04-24T09:31:08;1.00;;;0.70;;
3757;SDS011;1894;51.038;13.692;2023-04-24T09:33:53;0.70;;;0.60;;
3757;SDS011;1894;51.038;13.692;2023-04-24T09:36:33;0.60;;;0.50;;
3757;SDS011;1894;51.038;13.692;2023-04-24T09:39:05;2.40;;;0.80;;
3757;SDS011;1894;51.038;13.692;2023-04-24T09:41:48;0.80;;;0.60;;
3757;SDS011;1894;51.038;13.692;2023-04-24T09:44:21;1.63;;;0.70;;
3757;SDS011;1894;51.038;13.692;2023-04-24T09:46:54;1.70;;;0.67;;
3757;SDS011;1894;51.038;13.692;2023-04-24T09:51:52;2.30;;;0.80;;
3757;SDS011;1894;51.038;13.692;2023-04-24T09:54:36;0.90;;;0.60;;
3757;SDS011;1894;51.038;13.692;2023-04-24T09:57:07;0.80;;;0.60;;
3757;SDS011;1894;51.038;13.692;2023-04-24T09:59:35;1.63;;;0.70;;
3757;SDS011;1894;51.038;13.692;2023-04-24T10:02:20;1.20;;;0.50;;
3757;SDS011;1894;51.038;13.692;2023-04-24T10:04:54;0.70;;;0.47;;
3757;SDS011;1894;51.038;13.692;2023-04-24T10:07:27;0.80;;;0.70;;
3757;SDS011;1894;51.038;13.692;2023-04-24T10:09:54;2.83;;;0.70;;
3757;SDS011;1894;51.038;13.692;2023-04-24T10:12:22;1.10;;;0.60;;
3757;SDS011;1894;51.038;13.692;2023-04-24T10:14:50;1.30;;;0.60;;
3757;SDS011;1894;51.038;13.692;2023-04-24T10:17:17;2.27;;;0.50;;
3757;SDS011;1894;51.038;13.692;2023-04-24T10:19:47;1.63;;;0.80;;
3757;SDS011;1894;51.038;13.692;2023-04-24T10:22:14;1.53;;;0.60;;
3757;SDS011;1894;51.038;13.692;2023-04-24T10:24:44;1.47;;;0.70;;
3757;SDS011;1894;51.038;13.692;2023-04-24T10:27:13;1.47;;;0.53;;
3757;SDS011;1894;51.038;13.692;2023-04-24T10:29:41;0.93;;;0.60;;
3757;SDS011;1894;51.038;13.692;2023-04-24T10:32:11;1.63;;;0.67;;
3757;SDS011;1894;51.038;13.692;2023-04-24T10:34:38;1.37;;;0.70;;
3757;SDS011;1894;51.038;13.692;2023-04-24T10:37:05;1.33;;;0.60;;
3757;SDS011;1894;51.038;13.692;2023-04-24T10:39:32;1.77;;;0.70;;
3757;SDS011;1894;51.038;13.692;2023-04-24T10:42:00;4.00;;;0.90;;
3757;SDS011;1894;51.038;13.692;2023-04-24T10:44:35;1.63;;;0.70;;
3757;SDS011;1894;51.038;13.692;2023-04-24T10:47:03;1.37;;;0.80;;
3757;SDS011;1894;51.038;13.692;2023-04-24T10:49:31;0.87;;;0.60;;
3757;SDS011;1894;51.038;13.692;2023-04-24T10:52:02;0.80;;;0.77;;
3757;SDS011;1894;51.038;13.692;2023-04-24T10:54:42;2.43;;;0.70;;
3757;SDS011;1894;51.038;13.692;2023-04-24T10:59:49;1.40;;;0.70;;
3757;SDS011;1894;51.038;13.692;2023-04-24T11:02:36;1.47;;;0.50;;
3757;SDS011;1894;51.038;13.692;2023-04-24T11:05:05;0.93;;;0.60;;
3757;SDS011;1894;51.038;13.692;2023-04-24T11:10:46;0.80;;;0.60;;
3757;SDS011;1894;51.038;13.692;2023-04-24T11:13:21;3.53;;;0.70;;
3757;SDS011;1894;51.038;13.692;2023-04-24T11:21:42;0.83;;;0.50;;
3757;SDS011;1894;51.038;13.692;2023-04-24T11:32:28;3.43;;;0.60;;
3757;SDS011;1894;51.038;13.692;2023-04-24T11:35:08;0.80;;;0.60;;
3757;SDS011;1894;51.038;13.692;2023-04-24T11:37:43;0.93;;;0.60;;
3757;SDS011;1894;51.038;13.692;2023-04-24T11:40:23;1.87;;;0.70;;
3757;SDS011;1894;51.038;13.692;2023-04-24T11:42:52;0.67;;;0.50;;
3757;SDS011;1894;51.038;13.692;2023-04-24T11:45:27;0.80;;;0.60;;
3757;SDS011;1894;51.038;13.692;2023-04-24T11:47:56;2.70;;;0.77;;
3757;SDS011;1894;51.038;13.692;2023-04-24T11:50:24;1.20;;;0.83;;
3757;SDS011;1894;51.038;13.692;2023-04-24T11:52:54;0.80;;;0.60;;
3757;SDS011;1894;51.038;13.692;2023-04-24T11:57:55;2.53;;;0.70;;
3757;SDS011;1894;51.038;13.692;2023-04-24T12:00:28;12.20;;;0.70;;
3757;SDS011;1894;51.038;13.692;2023-04-24T12:03:09;1.53;;;0.70;;
3757;SDS011;1894;51.038;13.692;2023-04-24T12:05:39;1.10;;;0.70;;
3757;SDS011;1894;51.038;13.692;2023-04-24T12:08:07;1.17;;;0.70;;
3757;SDS011;1894;51.038;13.692;2023-04-24T12:10:35;1.20;;;0.70;;
3757;SDS011;1894;51.038;13.692;2023-04-24T12:13:02;1.30;;;0.60;;
3757;SDS011;1894;51.038;13.692;2023-04-24T12:15:30;8.13;;;0.70;;
3757;SDS011;1894;51.038;13.692;2023-04-24T12:17:58;3.13;;;0.60;;
3757;SDS011;1894;51.038;13.692;2023-04-24T12:20:29;1.03;;;0.60;;
3757;SDS011;1894;51.038;13.692;2023-04-24T12:22:59;1.00;;;0.60;;
3757;SDS011;1894;51.038;13.692;2023-04-24T12:25:28;1.03;;;0.80;;
3757;SDS011;1894;51.038;13.692;2023-04-24T12:30:38;2.70;;;0.60;;
3757;SDS011;1894;51.038;13.692;2023-04-24T12:33:11;4.73;;;0.90;;
3757;SDS011;1894;51.038;13.692;2023-04-24T12:35:39;1.63;;;0.70;;
3757;SDS011;1894;51.038;13.692;2023-04-24T12:38:15;1.00;;;0.60;;
3757;SDS011;1894;51.038;13.692;2023-04-24T12:40:44;2.60;;;0.70;;
3757;SDS011;1894;51.038;13.692;2023-04-24T12:43:14;0.70;;;0.60;;
3757;SDS011;1894;51.038;13.692;2023-04-24T12:45:45;1.00;;;0.80;;
3757;SDS011;1894;51.038;13.692;2023-04-24T12:48:15;4.03;;;0.70;;
3757;SDS011;1894;51.038;13.692;2023-04-24T12:50:43;0.80;;;0.80;;
3757;SDS011;1894;51.038;13.692;2023-04-24T12:53:13;2.30;;;0.70;;
3757;SDS011;1894;51.038;13.692;2023-04-24T12:55:40;4.23;;;0.80;;
3757;SDS011;1894;51.038;13.692;2023-04-24T12:58:08;1.80;;;0.70;;
3757;SDS011;1894;51.038;13.692;2023-04-24T13:00:35;2.10;;;0.70;;
3757;SDS011;1894;51.038;13.692;2023-04-24T13:03:02;3.17;;;0.77;;
3757;SDS011;1894;51.038;13.692;2023-04-24T13:05:30;2.90;;;0.70;;
3757;SDS011;1894;51.038;13.692;2023-04-24T13:07:57;1.20;;;0.80;;
3757;SDS011;1894;51.038;13.692;2023-04-24T13:10:24;2.40;;;0.77;;
3757;SDS011;1894;51.038;13.692;2023-04-24T13:12:52;1.73;;;0.70;;
3757;SDS011;1894;51.038;13.692;2023-04-24T13:15:19;1.30;;;0.90;;
3757;SDS011;1894;51.038;13.692;2023-04-24T13:17:46;2.57;;;0.70;;
3757;SDS011;1894;51.038;13.692;2023-04-24T13:20:13;1.40;;;0.90;;
3757;SDS011;1894;51.038;13.692;2023-04-24T13:22:41;0.80;;;0.60;;
3757;SDS011;1894;51.038;13.692;2023-04-24T13:25:08;2.33;;;0.87;;
3757;SDS011;1894;51.038;13.692;2023-04-24T13:27:38;1.00;;;0.70;;
3757;SDS011;1894;51.038;13.692;2023-04-24T13:30:06;1.90;;;0.80;;
3757;SDS011;1894;51.038;13.692;2023-04-24T13:32:34;0.87;;;0.80;;
3757;SDS011;1894;51.038;13.692;2023-04-24T13:35:02;2.80;;;0.97;;
3757;SDS011;1894;51.038;13.692;2023-04-24T13:37:29;4.57;;;0.73;;
3757;SDS011;1894;51.038;13.692;2023-04-24T13:39:56;1.03;;;0.80;;
3757;SDS011;1894;51.038;13.692;2023-04-24T13:42:23;1.87;;;0.63;;
3757;SDS011;1894;51.038;13.692;2023-04-24T13:44:51;0.73;;;0.70;;
3757;SDS011;1894;51.038;13.692;2023-04-24T13:47:20;2.70;;;0.73;;
3757;SDS011;1894;51.038;13.692;2023-04-24T13:49:47;4.20;;;0.83;;
3757;SDS011;1894;51.038;13.692;2023-04-24T13:52:14;3.27;;;0.70;;
3757;SDS011;1894;51.038;13.692;2023-04-24T13:54:42;1.53;;;0.70;;
3757;SDS011;1894;51.038;13.692;2023-04-24T13:57:09;2.50;;;1.20;;
3757;SDS011;1894;51.038;13.692;2023-04-24T13:59:36;2.60;;;0.90;;
3757;SDS011;1894;51.038;13.692;2023-04-24T14:02:03;0.90;;;0.70;;
3757;SDS011;1894;51.038;13.692;2023-04-24T14:04:30;3.23;;;1.13;;
3757;SDS011;1894;51.038;13.692;2023-04-24T14:06:58;1.60;;;0.70;;
3757;SDS011;1894;51.038;13.692;2023-04-24T14:09:25;1.73;;;0.70;;
3757;SDS011;1894;51.038;13.692;2023-04-24T14:11:52;0.93;;;0.83;;
3757;SDS011;1894;51.038;13.692;2023-04-24T14:14:19;1.57;;;1.10;;
3757;SDS011;1894;51.038;13.692;2023-04-24T14:16:46;4.80;;;0.70;;
3757;SDS011;1894;51.038;13.692;2023-04-24T14:19:13;2.17;;;1.00;;
3757;SDS011;1894;51.038;13.692;2023-04-24T14:21:41;2.20;;;0.80;;
3757;SDS011;1894;51.038;13.692;2023-04-24T14:24:08;0.70;;;0.67;;
3757;SDS011;1894;51.038;13.692;2023-04-24T14:26:35;20.43;;;1.40;;
3757;SDS011;1894;51.038;13.692;2023-04-24T14:29:02;2.13;;;1.27;;
3757;SDS011;1894;51.038;13.692;2023-04-24T14:31:40;2.97;;;1.00;;
3757;SDS011;1894;51.038;13.692;2023-04-24T14:34:08;1.77;;;0.73;;
3757;SDS011;1894;51.038;13.692;2023-04-24T14:36:35;0.90;;;0.80;;
3757;SDS011;1894;51.038;13.692;2023-04-24T14:39:03;1.37;;;0.70;;
3757;SDS011;1894;51.038;13.692;2023-04-24T14:41:33;3.90;;;0.90;;
3757;SDS011;1894;51.038;13.692;2023-04-24T14:44:03;2.17;;;1.10;;
3757;SDS011;1894;51.038;13.692;2023-04-24T14:46:30;0.60;;;0.60;;
3757;SDS011;1894;51.038;13.692;2023-04-24T14:48:57;1.67;;;0.97;;
3757;SDS011;1894;51.038;13.692;2023-04-24T14:51:25;1.27;;;1.10;;
3757;SDS011;1894;51.038;13.692;2023-04-24T14:53:53;1.00;;;0.90;;
3757;SDS011;1894;51.038;13.692;2023-04-24T14:56:20;1.47;;;0.90;;
3757;SDS011;1894;51.038;13.692;2023-04-24T14:58:47;1.00;;;0.90;;
3757;SDS011;1894;51.038;13.692;2023-04-24T15:01:15;0.80;;;0.80;;
3757;SDS011;1894;51.038;13.692;2023-04-24T15:03:43;1.67;;;0.90;;
3757;SDS011;1894;51.038;13.692;2023-04-24T15:06:11;2.43;;;0.83;;
3757;SDS011;1894;51.038;13.692;2023-04-24T15:08:39;1.77;;;0.80;;
3757;SDS011;1894;51.038;13.692;2023-04-24T15:11:06;1.20;;;0.80;;
3757;SDS011;1894;51.038;13.692;2023-04-24T15:13:33;4.53;;;0.90;;
3757;SDS011;1894;51.038;13.692;2023-04-24T15:16:00;1.57;;;0.90;;
3757;SDS011;1894;51.038;13.692;2023-04-24T15:18:28;1.50;;;0.77;;
3757;SDS011;1894;51.038;13.692;2023-04-24T15:20:55;0.77;;;0.70;;
3757;SDS011;1894;51.038;13.692;2023-04-24T15:23:23;1.43;;;0.70;;
3757;SDS011;1894;51.038;13.692;2023-04-24T15:25:50;1.10;;;0.70;;
3757;SDS011;1894;51.038;13.692;2023-04-24T15:28:17;0.93;;;0.73;;
3757;SDS011;1894;51.038;13.692;2023-04-24T15:30:44;1.30;;;0.80;;
3757;SDS011;1894;51.038;13.692;2023-04-24T15:33:11;0.80;;;0.70;;
3757;SDS011;1894;51.038;13.692;2023-04-24T15:35:39;1.67;;;0.80;;
3757;SDS011;1894;51.038;13.692;2023-04-24T15:38:07;2.43;;;0.93;;
3757;SDS011;1894;51.038;13.692;2023-04-24T15:40:34;1.00;;;0.90;;